sensor_id;sensor_type;location;lat;lon;timestamp;P1;durP1;ratioP1;P2;durP2;ratioP2
31798;SDS011;18374;51.136;3.502;2023-04-29T00:00:23;53.00;;;26.05;;
31798;SDS011;18374;51.136;3.502;2023-04-29T00:02:51;52.33;;;22.75;;
31798;SDS011;18374;51.136;3.502;2023-04-29T00:05:19;54.08;;;24.35;;
31798;SDS011;18374;51.136;3.502;2023-04-29T00:07:47;50.33;;;23.83;;
31798;SDS011;18374;51.136;3.502;2023-04-29T00:10:15;59.28;;;25.45;;
31798;SDS011;18374;51.136;3.502;2023-04-29T00:12:43;64.35;;;27.33;;
31798;SDS011;18374;51.136;3.502;2023-04-29T00:15:11;66.43;;;28.85;;
31798;SDS011;18374;51.136;3.502;2023-04-29T00:17:39;63.80;;;28.00;;
31798;SDS011;18374;51.136;3.502;2023-04-29T00:20:07;68.78;;;28.33;;
31798;SDS011;18374;51.136;3.502;2023-04-29T00:22:36;66.85;;;28.27;;
31798;SDS011;18374;51.136;3.502;2023-04-29T00:25:04;67.55;;;28.33;;
31798;SDS011;18374;51.136;3.502;2023-04-29T00:27:33;70.00;;;28.98;;
31798;SDS011;18374;51.136;3.502;2023-04-29T00:30:01;65.50;;;29.60;;
31798;SDS011;18374;51.136;3.502;2023-04-29T00:32:29;66.90;;;28.67;;
31798;SDS011;18374;51.136;3.502;2023-04-29T00:34:57;69.97;;;29.17;;
31798;SDS011;18374;51.136;3.502;2023-04-29T00:37:25;66.68;;;27.30;;
31798;SDS011;18374;51.136;3.502;2023-04-29T00:39:53;60.78;;;28.30;;
31798;SDS011;18374;51.136;3.502;2023-04-29T00:42:20;61.97;;;27.92;;
31798;SDS011;18374;51.136;3.502;2023-04-29T00:44:48;57.63;;;27.42;;
31798;SDS011;18374;51.136;3.502;2023-04-29T00:47:16;59.20;;;26.05;;
31798;SDS011;18374;51.136;3.502;2023-04-29T00:49:44;52.97;;;26.17;;
31798;SDS011;18374;51.136;3.502;2023-04-29T00:52:12;52.05;;;24.70;;
31798;SDS011;18374;51.136;3.502;2023-04-29T00:54:40;53.42;;;25.05;;
31798;SDS011;18374;51.136;3.502;2023-04-29T00:57:08;54.70;;;25.17;;
31798;SDS011;18374;51.136;3.502;2023-04-29T00:59:36;50.03;;;25.45;;
31798;SDS011;18374;51.136;3.502;2023-04-29T01:02:04;51.40;;;24.85;;
31798;SDS011;18374;51.136;3.502;2023-04-29T01:04:32;53.80;;;25.90;;
31798;SDS011;18374;51.136;3.502;2023-04-29T01:07:13;54.55;;;24.13;;
31798;SDS011;18374;51.136;3.502;2023-04-29T01:15:08;47.88;;;23.42;;
31798;SDS011;18374;51.136;3.502;2023-04-29T01:17:45;44.72;;;21.85;;
31798;SDS011;18374;51.136;3.502;2023-04-29T01:20:22;39.28;;;20.48;;
31798;SDS011;18374;51.136;3.502;2023-04-29T01:22:52;36.92;;;20.38;;
31798;SDS011;18374;51.136;3.502;2023-04-29T01:25:21;36.55;;;19.58;;
31798;SDS011;18374;51.136;3.502;2023-04-29T01:31:33;34.53;;;18.45;;
31798;SDS011;18374;51.136;3.502;2023-04-29T01:34:09;38.67;;;17.42;;
31798;SDS011;18374;51.136;3.502;2023-04-29T01:43:02;27.35;;;15.88;;
31798;SDS011;18374;51.136;3.502;2023-04-29T01:45:34;32.58;;;16.83;;
31798;SDS011;18374;51.136;3.502;2023-04-29T01:48:08;31.65;;;17.08;;
31798;SDS011;18374;51.136;3.502;2023-04-29T01:50:36;29.83;;;16.73;;
31798;SDS011;18374;51.136;3.502;2023-04-29T01:53:10;26.63;;;15.95;;
31798;SDS011;18374;51.136;3.502;2023-04-29T01:55:39;32.97;;;17.52;;
31798;SDS011;18374;51.136;3.502;2023-04-29T01:58:18;28.52;;;16.70;;
31798;SDS011;18374;51.136;3.502;2023-04-29T02:01:05;26.52;;;16.33;;
31798;SDS011;18374;51.136;3.502;2023-04-29T02:03:35;32.88;;;16.60;;
31798;SDS011;18374;51.136;3.502;2023-04-29T02:06:05;31.55;;;16.42;;
31798;SDS011;18374;51.136;3.502;2023-04-29T02:08:34;30.27;;;16.15;;
31798;SDS011;18374;51.136;3.502;2023-04-29T02:11:01;25.60;;;14.75;;
31798;SDS011;18374;51.136;3.502;2023-04-29T02:13:47;32.22;;;16.08;;
31798;SDS011;18374;51.136;3.502;2023-04-29T02:16:15;31.17;;;14.88;;
31798;SDS011;18374;51.136;3.502;2023-04-29T02:18:49;25.08;;;15.13;;
31798;SDS011;18374;51.136;3.502;2023-04-29T02:21:20;31.25;;;16.83;;
31798;SDS011;18374;51.136;3.502;2023-04-29T02:23:48;27.98;;;15.25;;
31798;SDS011;18374;51.136;3.502;2023-04-29T02:26:16;25.00;;;15.15;;
31798;SDS011;18374;51.136;3.502;2023-04-29T02:28:44;23.08;;;15.27;;
31798;SDS011;18374;51.136;3.502;2023-04-29T02:31:12;23.58;;;12.80;;
31798;SDS011;18374;51.136;3.502;2023-04-29T02:33:43;24.60;;;13.18;;
31798;SDS011;18374;51.136;3.502;2023-04-29T02:36:11;21.73;;;11.98;;
31798;SDS011;18374;51.136;3.502;2023-04-29T02:38:39;23.42;;;12.50;;
31798;SDS011;18374;51.136;3.502;2023-04-29T02:41:07;22.02;;;12.75;;
31798;SDS011;18374;51.136;3.502;2023-04-29T02:43:34;24.73;;;13.20;;
31798;SDS011;18374;51.136;3.502;2023-04-29T02:46:02;27.35;;;13.85;;
31798;SDS011;18374;51.136;3.502;2023-04-29T02:48:30;22.08;;;13.07;;
31798;SDS011;18374;51.136;3.502;2023-04-29T02:50:58;21.35;;;13.35;;
31798;SDS011;18374;51.136;3.502;2023-04-29T02:53:26;21.10;;;13.18;;
31798;SDS011;18374;51.136;3.502;2023-04-29T02:55:53;23.77;;;13.77;;
31798;SDS011;18374;51.136;3.502;2023-04-29T02:58:22;31.33;;;15.55;;
31798;SDS011;18374;51.136;3.502;2023-04-29T03:00:49;26.55;;;14.13;;
31798;SDS011;18374;51.136;3.502;2023-04-29T03:03:17;25.25;;;12.90;;
31798;SDS011;18374;51.136;3.502;2023-04-29T03:05:45;24.92;;;13.95;;
31798;SDS011;18374;51.136;3.502;2023-04-29T03:08:13;25.10;;;12.95;;
31798;SDS011;18374;51.136;3.502;2023-04-29T03:10:41;28.73;;;13.77;;
31798;SDS011;18374;51.136;3.502;2023-04-29T03:13:09;25.10;;;14.50;;
31798;SDS011;18374;51.136;3.502;2023-04-29T03:15:37;25.42;;;14.20;;
31798;SDS011;18374;51.136;3.502;2023-04-29T03:18:05;26.20;;;15.10;;
31798;SDS011;18374;51.136;3.502;2023-04-29T03:20:33;29.00;;;14.98;;
31798;SDS011;18374;51.136;3.502;2023-04-29T03:23:03;26.52;;;14.55;;
31798;SDS011;18374;51.136;3.502;2023-04-29T03:25:31;22.98;;;14.20;;
31798;SDS011;18374;51.136;3.502;2023-04-29T03:27:58;29.48;;;13.70;;
31798;SDS011;18374;51.136;3.502;2023-04-29T03:30:26;26.45;;;14.13;;
31798;SDS011;18374;51.136;3.502;2023-04-29T03:32:56;28.55;;;15.27;;
31798;SDS011;18374;51.136;3.502;2023-04-29T03:35:26;30.90;;;15.15;;
31798;SDS011;18374;51.136;3.502;2023-04-29T03:38:20;26.75;;;15.57;;
31798;SDS011;18374;51.136;3.502;2023-04-29T03:40:48;28.25;;;14.88;;
31798;SDS011;18374;51.136;3.502;2023-04-29T03:43:16;32.47;;;15.55;;
31798;SDS011;18374;51.136;3.502;2023-04-29T03:45:44;24.42;;;15.38;;
31798;SDS011;18374;51.136;3.502;2023-04-29T03:48:16;26.13;;;14.52;;
31798;SDS011;18374;51.136;3.502;2023-04-29T03:50:44;29.13;;;15.00;;
31798;SDS011;18374;51.136;3.502;2023-04-29T03:53:12;22.10;;;14.43;;
31798;SDS011;18374;51.136;3.502;2023-04-29T03:55:41;29.10;;;15.80;;
31798;SDS011;18374;51.136;3.502;2023-04-29T03:58:09;31.27;;;15.82;;
31798;SDS011;18374;51.136;3.502;2023-04-29T04:00:38;27.67;;;14.38;;
31798;SDS011;18374;51.136;3.502;2023-04-29T04:03:10;28.25;;;15.32;;
31798;SDS011;18374;51.136;3.502;2023-04-29T04:05:38;26.30;;;14.93;;
31798;SDS011;18374;51.136;3.502;2023-04-29T04:08:10;29.23;;;15.63;;
31798;SDS011;18374;51.136;3.502;2023-04-29T04:10:54;25.83;;;13.52;;
31798;SDS011;18374;51.136;3.502;2023-04-29T04:13:34;27.25;;;14.25;;
31798;SDS011;18374;51.136;3.502;2023-04-29T04:16:03;29.17;;;13.70;;
31798;SDS011;18374;51.136;3.502;2023-04-29T04:18:32;28.20;;;13.68;;
31798;SDS011;18374;51.136;3.502;2023-04-29T04:21:04;22.75;;;12.88;;
31798;SDS011;18374;51.136;3.502;2023-04-29T04:23:37;33.75;;;14.25;;
31798;SDS011;18374;51.136;3.502;2023-04-29T04:26:12;28.17;;;14.48;;
31798;SDS011;18374;51.136;3.502;2023-04-29T04:28:58;28.48;;;16.48;;
31798;SDS011;18374;51.136;3.502;2023-04-29T04:31:58;23.02;;;14.13;;
31798;SDS011;18374;51.136;3.502;2023-04-29T04:34:26;20.40;;;13.27;;
31798;SDS011;18374;51.136;3.502;2023-04-29T04:36:56;26.98;;;14.15;;
31798;SDS011;18374;51.136;3.502;2023-04-29T04:39:24;21.98;;;13.93;;
31798;SDS011;18374;51.136;3.502;2023-04-29T04:41:54;23.98;;;13.88;;
31798;SDS011;18374;51.136;3.502;2023-04-29T04:44:22;25.90;;;15.00;;
31798;SDS011;18374;51.136;3.502;2023-04-29T04:46:57;24.20;;;14.27;;
31798;SDS011;18374;51.136;3.502;2023-04-29T04:49:51;32.67;;;15.20;;
31798;SDS011;18374;51.136;3.502;2023-04-29T04:52:21;31.52;;;15.02;;
31798;SDS011;18374;51.136;3.502;2023-04-29T04:55:01;26.77;;;15.35;;
31798;SDS011;18374;51.136;3.502;2023-04-29T04:57:32;27.02;;;15.32;;
31798;SDS011;18374;51.136;3.502;2023-04-29T05:00:00;30.58;;;14.93;;
31798;SDS011;18374;51.136;3.502;2023-04-29T05:02:28;33.60;;;15.10;;
31798;SDS011;18374;51.136;3.502;2023-04-29T05:04:56;31.00;;;15.98;;
31798;SDS011;18374;51.136;3.502;2023-04-29T05:07:27;26.90;;;15.68;;
31798;SDS011;18374;51.136;3.502;2023-04-29T05:10:03;27.27;;;14.85;;
31798;SDS011;18374;51.136;3.502;2023-04-29T05:12:37;30.23;;;15.35;;
31798;SDS011;18374;51.136;3.502;2023-04-29T05:15:06;21.63;;;14.38;;
31798;SDS011;18374;51.136;3.502;2023-04-29T05:17:34;24.85;;;15.18;;
31798;SDS011;18374;51.136;3.502;2023-04-29T05:20:03;27.58;;;16.77;;
31798;SDS011;18374;51.136;3.502;2023-04-29T05:22:32;29.98;;;16.42;;
31798;SDS011;18374;51.136;3.502;2023-04-29T05:25:01;28.35;;;17.08;;
31798;SDS011;18374;51.136;3.502;2023-04-29T05:27:30;31.80;;;15.88;;
31798;SDS011;18374;51.136;3.502;2023-04-29T05:29:58;26.80;;;15.80;;
31798;SDS011;18374;51.136;3.502;2023-04-29T05:32:27;31.20;;;16.35;;
31798;SDS011;18374;51.136;3.502;2023-04-29T05:34:55;26.17;;;15.25;;
31798;SDS011;18374;51.136;3.502;2023-04-29T05:37:23;29.45;;;16.13;;
31798;SDS011;18374;51.136;3.502;2023-04-29T05:40:05;28.67;;;16.42;;
31798;SDS011;18374;51.136;3.502;2023-04-29T05:42:34;30.70;;;15.70;;
31798;SDS011;18374;51.136;3.502;2023-04-29T05:45:02;36.22;;;17.02;;
31798;SDS011;18374;51.136;3.502;2023-04-29T05:47:31;28.33;;;15.18;;
31798;SDS011;18374;51.136;3.502;2023-04-29T05:50:00;26.88;;;15.98;;
31798;SDS011;18374;51.136;3.502;2023-04-29T05:52:28;29.65;;;16.27;;
31798;SDS011;18374;51.136;3.502;2023-04-29T05:54:55;25.02;;;15.30;;
31798;SDS011;18374;51.136;3.502;2023-04-29T05:57:24;28.88;;;15.27;;
31798;SDS011;18374;51.136;3.502;2023-04-29T05:59:53;26.80;;;14.93;;
31798;SDS011;18374;51.136;3.502;2023-04-29T06:02:21;28.95;;;15.20;;
31798;SDS011;18374;51.136;3.502;2023-04-29T06:04:50;29.42;;;15.00;;
31798;SDS011;18374;51.136;3.502;2023-04-29T06:07:25;28.88;;;14.38;;
31798;SDS011;18374;51.136;3.502;2023-04-29T06:10:05;28.33;;;15.93;;
31798;SDS011;18374;51.136;3.502;2023-04-29T06:12:34;21.52;;;14.85;;
31798;SDS011;18374;51.136;3.502;2023-04-29T06:15:02;26.30;;;16.08;;
31798;SDS011;18374;51.136;3.502;2023-04-29T06:17:30;24.20;;;14.57;;
31798;SDS011;18374;51.136;3.502;2023-04-29T06:19:58;28.13;;;14.93;;
31798;SDS011;18374;51.136;3.502;2023-04-29T06:22:26;28.25;;;15.45;;
31798;SDS011;18374;51.136;3.502;2023-04-29T06:24:54;26.52;;;15.73;;
31798;SDS011;18374;51.136;3.502;2023-04-29T06:27:43;26.50;;;15.25;;
31798;SDS011;18374;51.136;3.502;2023-04-29T06:30:11;27.27;;;15.75;;
31798;SDS011;18374;51.136;3.502;2023-04-29T06:32:39;27.10;;;15.18;;
31798;SDS011;18374;51.136;3.502;2023-04-29T06:35:07;26.85;;;14.57;;
31798;SDS011;18374;51.136;3.502;2023-04-29T06:38:07;28.55;;;15.02;;
31798;SDS011;18374;51.136;3.502;2023-04-29T06:40:44;29.67;;;15.25;;
31798;SDS011;18374;51.136;3.502;2023-04-29T06:43:30;34.13;;;15.27;;
31798;SDS011;18374;51.136;3.502;2023-04-29T06:46:16;26.55;;;15.07;;
31798;SDS011;18374;51.136;3.502;2023-04-29T06:48:54;27.63;;;14.68;;
31798;SDS011;18374;51.136;3.502;2023-04-29T06:51:21;26.02;;;14.65;;
31798;SDS011;18374;51.136;3.502;2023-04-29T06:53:50;24.42;;;14.63;;
31798;SDS011;18374;51.136;3.502;2023-04-29T06:56:19;21.30;;;13.63;;
31798;SDS011;18374;51.136;3.502;2023-04-29T06:58:47;25.55;;;14.85;;
31798;SDS011;18374;51.136;3.502;2023-04-29T07:01:15;26.13;;;14.25;;
31798;SDS011;18374;51.136;3.502;2023-04-29T07:03:43;23.77;;;14.02;;
31798;SDS011;18374;51.136;3.502;2023-04-29T07:06:11;24.02;;;13.95;;
31798;SDS011;18374;51.136;3.502;2023-04-29T07:08:39;24.88;;;14.02;;
31798;SDS011;18374;51.136;3.502;2023-04-29T07:11:07;27.58;;;14.80;;
31798;SDS011;18374;51.136;3.502;2023-04-29T07:13:35;19.10;;;13.35;;
31798;SDS011;18374;51.136;3.502;2023-04-29T07:16:03;20.70;;;13.75;;
31798;SDS011;18374;51.136;3.502;2023-04-29T07:18:31;25.90;;;14.23;;
31798;SDS011;18374;51.136;3.502;2023-04-29T07:21:02;21.10;;;13.85;;
31798;SDS011;18374;51.136;3.502;2023-04-29T07:23:30;22.73;;;13.77;;
31798;SDS011;18374;51.136;3.502;2023-04-29T07:25:57;24.25;;;14.10;;
31798;SDS011;18374;51.136;3.502;2023-04-29T07:28:25;23.15;;;13.43;;
31798;SDS011;18374;51.136;3.502;2023-04-29T07:30:53;31.42;;;13.55;;
31798;SDS011;18374;51.136;3.502;2023-04-29T07:33:22;21.90;;;12.98;;
31798;SDS011;18374;51.136;3.502;2023-04-29T07:35:50;27.00;;;13.88;;
31798;SDS011;18374;51.136;3.502;2023-04-29T07:38:18;25.67;;;13.10;;
31798;SDS011;18374;51.136;3.502;2023-04-29T07:40:47;22.42;;;12.48;;
31798;SDS011;18374;51.136;3.502;2023-04-29T07:43:15;23.63;;;13.60;;
31798;SDS011;18374;51.136;3.502;2023-04-29T07:45:43;21.05;;;12.55;;
31798;SDS011;18374;51.136;3.502;2023-04-29T07:48:10;20.67;;;13.13;;
31798;SDS011;18374;51.136;3.502;2023-04-29T07:50:38;22.95;;;12.07;;
31798;SDS011;18374;51.136;3.502;2023-04-29T07:53:06;25.10;;;12.68;;
31798;SDS011;18374;51.136;3.502;2023-04-29T07:55:36;22.00;;;12.80;;
31798;SDS011;18374;51.136;3.502;2023-04-29T07:58:05;23.15;;;12.35;;
31798;SDS011;18374;51.136;3.502;2023-04-29T08:00:33;20.00;;;11.75;;
31798;SDS011;18374;51.136;3.502;2023-04-29T08:03:01;18.30;;;11.57;;
31798;SDS011;18374;51.136;3.502;2023-04-29T08:05:29;19.75;;;11.70;;
31798;SDS011;18374;51.136;3.502;2023-04-29T08:07:57;25.77;;;12.70;;
31798;SDS011;18374;51.136;3.502;2023-04-29T08:10:25;21.55;;;11.45;;
31798;SDS011;18374;51.136;3.502;2023-04-29T08:12:53;17.63;;;10.50;;
31798;SDS011;18374;51.136;3.502;2023-04-29T08:15:21;18.67;;;11.15;;
31798;SDS011;18374;51.136;3.502;2023-04-29T08:17:50;17.75;;;11.63;;
31798;SDS011;18374;51.136;3.502;2023-04-29T08:20:17;18.63;;;11.05;;
31798;SDS011;18374;51.136;3.502;2023-04-29T08:22:45;18.15;;;10.30;;
31798;SDS011;18374;51.136;3.502;2023-04-29T08:25:13;17.13;;;10.32;;
31798;SDS011;18374;51.136;3.502;2023-04-29T08:27:41;18.23;;;10.68;;
31798;SDS011;18374;51.136;3.502;2023-04-29T08:30:11;17.83;;;10.93;;
31798;SDS011;18374;51.136;3.502;2023-04-29T08:32:39;16.08;;;10.70;;
31798;SDS011;18374;51.136;3.502;2023-04-29T08:35:07;15.68;;;11.05;;
31798;SDS011;18374;51.136;3.502;2023-04-29T08:37:35;16.30;;;10.48;;
31798;SDS011;18374;51.136;3.502;2023-04-29T08:40:03;17.88;;;10.23;;
31798;SDS011;18374;51.136;3.502;2023-04-29T08:42:33;17.88;;;11.00;;
31798;SDS011;18374;51.136;3.502;2023-04-29T08:45:03;14.05;;;9.65;;
31798;SDS011;18374;51.136;3.502;2023-04-29T08:47:32;14.13;;;9.13;;
31798;SDS011;18374;51.136;3.502;2023-04-29T08:50:01;18.63;;;8.82;;
31798;SDS011;18374;51.136;3.502;2023-04-29T08:52:31;17.50;;;9.93;;
31798;SDS011;18374;51.136;3.502;2023-04-29T08:54:59;14.40;;;9.93;;
31798;SDS011;18374;51.136;3.502;2023-04-29T08:57:29;17.17;;;10.63;;
31798;SDS011;18374;51.136;3.502;2023-04-29T09:00:06;19.75;;;9.75;;
31798;SDS011;18374;51.136;3.502;2023-04-29T09:02:38;18.55;;;10.75;;
31798;SDS011;18374;51.136;3.502;2023-04-29T09:05:13;18.40;;;11.10;;
31798;SDS011;18374;51.136;3.502;2023-04-29T09:07:41;20.08;;;10.13;;
31798;SDS011;18374;51.136;3.502;2023-04-29T09:10:10;18.15;;;9.95;;
31798;SDS011;18374;51.136;3.502;2023-04-29T09:12:38;16.13;;;9.80;;
31798;SDS011;18374;51.136;3.502;2023-04-29T09:15:06;15.80;;;9.88;;
31798;SDS011;18374;51.136;3.502;2023-04-29T09:17:38;15.65;;;10.07;;
31798;SDS011;18374;51.136;3.502;2023-04-29T09:22:48;19.02;;;10.73;;
31798;SDS011;18374;51.136;3.502;2023-04-29T09:25:21;18.83;;;10.63;;
31798;SDS011;18374;51.136;3.502;2023-04-29T09:27:49;16.30;;;9.88;;
31798;SDS011;18374;51.136;3.502;2023-04-29T09:30:17;18.33;;;9.52;;
31798;SDS011;18374;51.136;3.502;2023-04-29T09:32:45;16.83;;;9.70;;
31798;SDS011;18374;51.136;3.502;2023-04-29T09:35:34;17.85;;;9.82;;
31798;SDS011;18374;51.136;3.502;2023-04-29T09:38:10;17.40;;;10.45;;
31798;SDS011;18374;51.136;3.502;2023-04-29T09:40:42;15.30;;;9.23;;
31798;SDS011;18374;51.136;3.502;2023-04-29T09:43:23;18.75;;;10.48;;
31798;SDS011;18374;51.136;3.502;2023-04-29T09:45:52;13.88;;;9.80;;
31798;SDS011;18374;51.136;3.502;2023-04-29T09:48:20;16.88;;;10.00;;
31798;SDS011;18374;51.136;3.502;2023-04-29T09:50:58;16.05;;;9.98;;
31798;SDS011;18374;51.136;3.502;2023-04-29T09:53:29;15.85;;;10.18;;
31798;SDS011;18374;51.136;3.502;2023-04-29T09:55:58;16.98;;;10.02;;
31798;SDS011;18374;51.136;3.502;2023-04-29T09:58:29;15.13;;;9.80;;
31798;SDS011;18374;51.136;3.502;2023-04-29T10:01:05;16.23;;;9.93;;
31798;SDS011;18374;51.136;3.502;2023-04-29T10:03:34;15.93;;;10.15;;
31798;SDS011;18374;51.136;3.502;2023-04-29T10:06:05;17.00;;;9.93;;
31798;SDS011;18374;51.136;3.502;2023-04-29T10:08:34;21.20;;;10.90;;
31798;SDS011;18374;51.136;3.502;2023-04-29T10:11:02;20.08;;;11.15;;
31798;SDS011;18374;51.136;3.502;2023-04-29T10:13:33;17.13;;;10.48;;
31798;SDS011;18374;51.136;3.502;2023-04-29T10:16:12;20.90;;;10.65;;
31798;SDS011;18374;51.136;3.502;2023-04-29T10:21:30;16.58;;;10.77;;
31798;SDS011;18374;51.136;3.502;2023-04-29T10:23:58;20.70;;;10.70;;
31798;SDS011;18374;51.136;3.502;2023-04-29T10:26:28;20.42;;;11.18;;
31798;SDS011;18374;51.136;3.502;2023-04-29T10:28:58;17.55;;;10.10;;
31798;SDS011;18374;51.136;3.502;2023-04-29T10:31:27;17.02;;;11.05;;
31798;SDS011;18374;51.136;3.502;2023-04-29T10:33:58;18.27;;;11.20;;
31798;SDS011;18374;51.136;3.502;2023-04-29T10:36:27;18.58;;;10.90;;
31798;SDS011;18374;51.136;3.502;2023-04-29T10:38:58;15.50;;;11.23;;
31798;SDS011;18374;51.136;3.502;2023-04-29T10:41:33;20.65;;;11.15;;
31798;SDS011;18374;51.136;3.502;2023-04-29T10:44:13;15.90;;;10.95;;
31798;SDS011;18374;51.136;3.502;2023-04-29T10:46:40;17.58;;;11.05;;
31798;SDS011;18374;51.136;3.502;2023-04-29T10:49:08;17.60;;;11.15;;
31798;SDS011;18374;51.136;3.502;2023-04-29T10:51:41;17.08;;;11.70;;
31798;SDS011;18374;51.136;3.502;2023-04-29T10:54:14;20.95;;;11.43;;
31798;SDS011;18374;51.136;3.502;2023-04-29T10:56:48;18.95;;;11.85;;
31798;SDS011;18374;51.136;3.502;2023-04-29T10:59:43;21.95;;;12.73;;
31798;SDS011;18374;51.136;3.502;2023-04-29T11:02:09;21.02;;;12.45;;
31798;SDS011;18374;51.136;3.502;2023-04-29T11:05:05;20.13;;;12.60;;
31798;SDS011;18374;51.136;3.502;2023-04-29T11:07:35;25.02;;;13.57;;
31798;SDS011;18374;51.136;3.502;2023-04-29T11:10:03;19.40;;;13.13;;
31798;SDS011;18374;51.136;3.502;2023-04-29T11:12:31;22.17;;;12.98;;
31798;SDS011;18374;51.136;3.502;2023-04-29T11:14:59;25.52;;;13.02;;
31798;SDS011;18374;51.136;3.502;2023-04-29T11:17:34;22.55;;;14.13;;
31798;SDS011;18374;51.136;3.502;2023-04-29T11:20:08;21.88;;;13.65;;
31798;SDS011;18374;51.136;3.502;2023-04-29T11:25:08;21.23;;;11.73;;
31798;SDS011;18374;51.136;3.502;2023-04-29T11:27:38;17.98;;;11.85;;
31798;SDS011;18374;51.136;3.502;2023-04-29T11:30:08;19.33;;;12.07;;
31798;SDS011;18374;51.136;3.502;2023-04-29T11:32:37;21.45;;;12.35;;
31798;SDS011;18374;51.136;3.502;2023-04-29T11:35:14;17.63;;;11.90;;
31798;SDS011;18374;51.136;3.502;2023-04-29T11:37:44;19.00;;;11.98;;
31798;SDS011;18374;51.136;3.502;2023-04-29T11:40:13;17.85;;;11.60;;
31798;SDS011;18374;51.136;3.502;2023-04-29T11:42:45;16.67;;;10.73;;
31798;SDS011;18374;51.136;3.502;2023-04-29T11:45:18;19.92;;;11.57;;
31798;SDS011;18374;51.136;3.502;2023-04-29T11:47:46;16.40;;;11.32;;
31798;SDS011;18374;51.136;3.502;2023-04-29T11:50:16;16.50;;;10.40;;
31798;SDS011;18374;51.136;3.502;2023-04-29T11:52:46;17.13;;;11.18;;
31798;SDS011;18374;51.136;3.502;2023-04-29T11:55:15;19.92;;;11.80;;
31798;SDS011;18374;51.136;3.502;2023-04-29T11:57:47;16.27;;;10.73;;
31798;SDS011;18374;51.136;3.502;2023-04-29T12:00:17;18.13;;;10.68;;
31798;SDS011;18374;51.136;3.502;2023-04-29T12:02:45;12.38;;;8.93;;
31798;SDS011;18374;51.136;3.502;2023-04-29T12:05:14;17.05;;;10.88;;
31798;SDS011;18374;51.136;3.502;2023-04-29T12:07:43;15.50;;;11.07;;
31798;SDS011;18374;51.136;3.502;2023-04-29T12:10:11;17.35;;;11.63;;
31798;SDS011;18374;51.136;3.502;2023-04-29T12:12:39;14.77;;;10.00;;
31798;SDS011;18374;51.136;3.502;2023-04-29T12:15:10;16.55;;;10.35;;
31798;SDS011;18374;51.136;3.502;2023-04-29T12:17:39;15.68;;;10.77;;
31798;SDS011;18374;51.136;3.502;2023-04-29T12:20:07;14.52;;;10.05;;
31798;SDS011;18374;51.136;3.502;2023-04-29T12:22:37;14.95;;;10.10;;
31798;SDS011;18374;51.136;3.502;2023-04-29T12:25:05;15.60;;;9.88;;
31798;SDS011;18374;51.136;3.502;2023-04-29T12:27:34;15.52;;;8.98;;
31798;SDS011;18374;51.136;3.502;2023-04-29T12:30:06;12.60;;;7.80;;
31798;SDS011;18374;51.136;3.502;2023-04-29T12:32:38;12.93;;;9.60;;
31798;SDS011;18374;51.136;3.502;2023-04-29T12:35:13;11.88;;;9.45;;
31798;SDS011;18374;51.136;3.502;2023-04-29T12:37:48;15.02;;;10.02;;
31798;SDS011;18374;51.136;3.502;2023-04-29T12:40:16;13.77;;;10.13;;
31798;SDS011;18374;51.136;3.502;2023-04-29T12:42:46;15.57;;;10.75;;
31798;SDS011;18374;51.136;3.502;2023-04-29T12:45:30;15.38;;;10.80;;
31798;SDS011;18374;51.136;3.502;2023-04-29T12:48:00;17.73;;;9.65;;
31798;SDS011;18374;51.136;3.502;2023-04-29T12:50:36;13.18;;;8.85;;
31798;SDS011;18374;51.136;3.502;2023-04-29T12:53:05;12.70;;;8.35;;
31798;SDS011;18374;51.136;3.502;2023-04-29T12:55:35;14.40;;;10.02;;
31798;SDS011;18374;51.136;3.502;2023-04-29T12:58:04;13.88;;;10.25;;
31798;SDS011;18374;51.136;3.502;2023-04-29T13:00:33;11.27;;;9.63;;
31798;SDS011;18374;51.136;3.502;2023-04-29T13:03:03;14.10;;;10.23;;
31798;SDS011;18374;51.136;3.502;2023-04-29T13:05:31;14.43;;;10.88;;
31798;SDS011;18374;51.136;3.502;2023-04-29T13:07:59;15.10;;;10.20;;
31798;SDS011;18374;51.136;3.502;2023-04-29T13:10:28;13.80;;;10.23;;
31798;SDS011;18374;51.136;3.502;2023-04-29T13:12:55;14.65;;;10.00;;
31798;SDS011;18374;51.136;3.502;2023-04-29T13:15:23;11.95;;;9.45;;
31798;SDS011;18374;51.136;3.502;2023-04-29T13:17:52;20.60;;;11.60;;
31798;SDS011;18374;51.136;3.502;2023-04-29T13:20:21;15.63;;;10.30;;
31798;SDS011;18374;51.136;3.502;2023-04-29T13:22:49;14.80;;;11.25;;
31798;SDS011;18374;51.136;3.502;2023-04-29T13:25:17;14.43;;;11.02;;
31798;SDS011;18374;51.136;3.502;2023-04-29T13:27:45;14.82;;;11.20;;
31798;SDS011;18374;51.136;3.502;2023-04-29T13:30:12;17.40;;;11.85;;
31798;SDS011;18374;51.136;3.502;2023-04-29T13:32:40;14.80;;;10.70;;
31798;SDS011;18374;51.136;3.502;2023-04-29T13:35:17;12.60;;;10.25;;
31798;SDS011;18374;51.136;3.502;2023-04-29T13:37:45;16.85;;;11.10;;
31798;SDS011;18374;51.136;3.502;2023-04-29T13:40:14;14.13;;;11.32;;
31798;SDS011;18374;51.136;3.502;2023-04-29T13:42:47;13.90;;;11.30;;
31798;SDS011;18374;51.136;3.502;2023-04-29T13:45:27;20.20;;;13.65;;
31798;SDS011;18374;51.136;3.502;2023-04-29T13:47:56;21.23;;;12.65;;
31798;SDS011;18374;51.136;3.502;2023-04-29T13:50:44;21.08;;;13.07;;
31798;SDS011;18374;51.136;3.502;2023-04-29T13:53:14;22.33;;;13.00;;
31798;SDS011;18374;51.136;3.502;2023-04-29T13:56:05;20.13;;;12.82;;
31798;SDS011;18374;51.136;3.502;2023-04-29T13:58:36;24.48;;;13.48;;
31798;SDS011;18374;51.136;3.502;2023-04-29T14:01:23;18.92;;;13.60;;
31798;SDS011;18374;51.136;3.502;2023-04-29T14:04:11;25.90;;;13.75;;
31798;SDS011;18374;51.136;3.502;2023-04-29T14:06:39;20.58;;;13.23;;
31798;SDS011;18374;51.136;3.502;2023-04-29T14:09:10;21.10;;;12.43;;
31798;SDS011;18374;51.136;3.502;2023-04-29T14:11:38;23.92;;;13.57;;
31798;SDS011;18374;51.136;3.502;2023-04-29T14:14:05;19.80;;;13.35;;
31798;SDS011;18374;51.136;3.502;2023-04-29T14:16:33;23.58;;;13.55;;
31798;SDS011;18374;51.136;3.502;2023-04-29T14:19:01;19.55;;;12.98;;
31798;SDS011;18374;51.136;3.502;2023-04-29T14:21:30;22.77;;;13.25;;
31798;SDS011;18374;51.136;3.502;2023-04-29T14:23:59;20.40;;;12.75;;
31798;SDS011;18374;51.136;3.502;2023-04-29T14:26:28;20.95;;;12.63;;
31798;SDS011;18374;51.136;3.502;2023-04-29T14:28:57;17.95;;;12.75;;
31798;SDS011;18374;51.136;3.502;2023-04-29T14:31:27;17.48;;;11.68;;
31798;SDS011;18374;51.136;3.502;2023-04-29T14:33:57;18.25;;;11.05;;
31798;SDS011;18374;51.136;3.502;2023-04-29T14:36:25;15.35;;;9.98;;
31798;SDS011;18374;51.136;3.502;2023-04-29T14:38:54;14.55;;;10.52;;
31798;SDS011;18374;51.136;3.502;2023-04-29T14:41:22;18.08;;;9.77;;
31798;SDS011;18374;51.136;3.502;2023-04-29T14:43:49;19.75;;;11.27;;
31798;SDS011;18374;51.136;3.502;2023-04-29T14:46:17;16.50;;;10.80;;
31798;SDS011;18374;51.136;3.502;2023-04-29T14:48:45;24.02;;;10.80;;
31798;SDS011;18374;51.136;3.502;2023-04-29T14:51:14;16.73;;;10.25;;
31798;SDS011;18374;51.136;3.502;2023-04-29T14:53:41;13.52;;;9.60;;
31798;SDS011;18374;51.136;3.502;2023-04-29T14:56:09;17.30;;;8.80;;
31798;SDS011;18374;51.136;3.502;2023-04-29T14:58:37;22.80;;;9.07;;
31798;SDS011;18374;51.136;3.502;2023-04-29T15:01:05;20.67;;;10.30;;
31798;SDS011;18374;51.136;3.502;2023-04-29T15:03:33;12.10;;;8.23;;
31798;SDS011;18374;51.136;3.502;2023-04-29T15:06:10;17.00;;;9.35;;